sensor_id;sensor_type;location;lat;lon;timestamp;P1;durP1;ratioP1;P2;durP2;ratioP2
56299;SDS011;42209;6.376;-10.782;2023-08-31T00:02:01;5.10;;;4.60;;
56299;SDS011;42209;6.376;-10.782;2023-08-31T00:04:30;4.75;;;4.25;;
56299;SDS011;42209;6.376;-10.782;2023-08-31T00:06:59;4.13;;;3.53;;
56299;SDS011;42209;6.376;-10.782;2023-08-31T00:11:55;6.63;;;4.55;;
56299;SDS011;42209;6.376;-10.782;2023-08-31T00:16:52;4.00;;;3.60;;
56299;SDS011;42209;6.376;-10.782;2023-08-31T00:19:21;5.60;;;3.63;;
56299;SDS011;42209;6.376;-10.782;2023-08-31T00:21:50;5.93;;;4.20;;
56299;SDS011;42209;6.376;-10.782;2023-08-31T00:24:19;4.72;;;3.72;;
56299;SDS011;42209;6.376;-10.782;2023-08-31T00:26:47;5.45;;;3.72;;
56299;SDS011;42209;6.376;-10.782;2023-08-31T00:29:17;4.78;;;3.38;;
56299;SDS011;42209;6.376;-10.782;2023-08-31T00:34:14;3.55;;;3.25;;
56299;SDS011;42209;6.376;-10.782;2023-08-31T00:36:43;5.15;;;3.75;;
56299;SDS011;42209;6.376;-10.782;2023-08-31T00:39:11;4.95;;;4.07;;
56299;SDS011;42209;6.376;-10.782;2023-08-31T00:41:41;5.63;;;3.90;;
56299;SDS011;42209;6.376;-10.782;2023-08-31T00:44:10;4.53;;;3.45;;
56299;SDS011;42209;6.376;-10.782;2023-08-31T00:46:40;4.18;;;3.58;;
56299;SDS011;42209;6.376;-10.782;2023-08-31T00:49:10;6.03;;;4.00;;
56299;SDS011;42209;6.376;-10.782;2023-08-31T00:51:40;5.05;;;4.03;;
56299;SDS011;42209;6.376;-10.782;2023-08-31T00:54:08;3.58;;;3.28;;
56299;SDS011;42209;6.376;-10.782;2023-08-31T00:56:37;3.35;;;3.05;;
56299;SDS011;42209;6.376;-10.782;2023-08-31T00:59:07;4.30;;;3.38;;
56299;SDS011;42209;6.376;-10.782;2023-08-31T01:01:36;3.67;;;3.38;;
56299;SDS011;42209;6.376;-10.782;2023-08-31T01:13:07;4.47;;;3.38;;
56299;SDS011;42209;6.376;-10.782;2023-08-31T01:15:50;4.65;;;3.33;;
56299;SDS011;42209;6.376;-10.782;2023-08-31T01:18:22;4.00;;;3.53;;
56299;SDS011;42209;6.376;-10.782;2023-08-31T01:21:05;4.57;;;3.72;;
56299;SDS011;42209;6.376;-10.782;2023-08-31T01:23:57;5.20;;;3.63;;
56299;SDS011;42209;6.376;-10.782;2023-08-31T01:26:26;4.47;;;4.03;;
56299;SDS011;42209;6.376;-10.782;2023-08-31T01:28:55;3.47;;;3.15;;
56299;SDS011;42209;6.376;-10.782;2023-08-31T01:31:24;5.97;;;3.67;;
56299;SDS011;42209;6.376;-10.782;2023-08-31T01:33:52;4.40;;;3.42;;
56299;SDS011;42209;6.376;-10.782;2023-08-31T01:36:32;3.63;;;3.28;;
56299;SDS011;42209;6.376;-10.782;2023-08-31T01:39:20;5.68;;;3.55;;
56299;SDS011;42209;6.376;-10.782;2023-08-31T01:42:02;5.57;;;4.00;;
56299;SDS011;42209;6.376;-10.782;2023-08-31T01:44:33;5.20;;;3.85;;
56299;SDS011;42209;6.376;-10.782;2023-08-31T01:47:05;5.18;;;3.65;;
56299;SDS011;42209;6.376;-10.782;2023-08-31T01:49:39;4.75;;;3.53;;
56299;SDS011;42209;6.376;-10.782;2023-08-31T01:52:07;5.10;;;3.38;;
56299;SDS011;42209;6.376;-10.782;2023-08-31T01:57:05;5.65;;;4.13;;
56299;SDS011;42209;6.376;-10.782;2023-08-31T01:59:54;5.72;;;4.03;;
56299;SDS011;42209;6.376;-10.782;2023-08-31T02:02:22;4.50;;;3.72;;
56299;SDS011;42209;6.376;-10.782;2023-08-31T02:07:19;4.13;;;3.58;;
56299;SDS011;42209;6.376;-10.782;2023-08-31T02:12:16;4.55;;;4.15;;
56299;SDS011;42209;6.376;-10.782;2023-08-31T02:14:45;6.22;;;3.80;;
56299;SDS011;42209;6.376;-10.782;2023-08-31T02:17:14;4.47;;;3.55;;
56299;SDS011;42209;6.376;-10.782;2023-08-31T02:19:42;5.30;;;3.95;;
56299;SDS011;42209;6.376;-10.782;2023-08-31T02:22:11;4.88;;;4.30;;
56299;SDS011;42209;6.376;-10.782;2023-08-31T02:24:39;4.40;;;3.92;;
56299;SDS011;42209;6.376;-10.782;2023-08-31T02:27:08;3.65;;;3.35;;
56299;SDS011;42209;6.376;-10.782;2023-08-31T02:29:36;4.38;;;3.72;;
56299;SDS011;42209;6.376;-10.782;2023-08-31T02:32:05;4.97;;;3.40;;
56299;SDS011;42209;6.376;-10.782;2023-08-31T02:34:33;5.55;;;4.07;;
56299;SDS011;42209;6.376;-10.782;2023-08-31T02:37:05;7.35;;;4.05;;
56299;SDS011;42209;6.376;-10.782;2023-08-31T02:39:33;4.57;;;4.13;;
56299;SDS011;42209;6.376;-10.782;2023-08-31T02:42:02;5.00;;;4.07;;
56299;SDS011;42209;6.376;-10.782;2023-08-31T02:44:30;4.68;;;4.10;;
56299;SDS011;42209;6.376;-10.782;2023-08-31T02:46:59;5.82;;;4.03;;
56299;SDS011;42209;6.376;-10.782;2023-08-31T02:49:27;5.22;;;4.05;;
56299;SDS011;42209;6.376;-10.782;2023-08-31T02:51:56;6.45;;;4.43;;
56299;SDS011;42209;6.376;-10.782;2023-08-31T02:54:24;5.03;;;3.63;;
56299;SDS011;42209;6.376;-10.782;2023-08-31T02:56:52;5.90;;;4.70;;
56299;SDS011;42209;6.376;-10.782;2023-08-31T02:59:21;4.38;;;3.97;;
56299;SDS011;42209;6.376;-10.782;2023-08-31T03:01:49;7.82;;;4.88;;
56299;SDS011;42209;6.376;-10.782;2023-08-31T03:04:18;4.90;;;3.70;;
56299;SDS011;42209;6.376;-10.782;2023-08-31T03:06:46;6.50;;;4.18;;
56299;SDS011;42209;6.376;-10.782;2023-08-31T03:09:15;5.97;;;4.10;;
56299;SDS011;42209;6.376;-10.782;2023-08-31T03:11:43;5.47;;;3.92;;
56299;SDS011;42209;6.376;-10.782;2023-08-31T03:14:11;5.30;;;4.15;;
56299;SDS011;42209;6.376;-10.782;2023-08-31T03:16:40;4.85;;;4.15;;
56299;SDS011;42209;6.376;-10.782;2023-08-31T03:19:09;4.75;;;3.83;;
56299;SDS011;42209;6.376;-10.782;2023-08-31T03:21:37;5.28;;;3.97;;
56299;SDS011;42209;6.376;-10.782;2023-08-31T03:24:06;4.97;;;3.80;;
56299;SDS011;42209;6.376;-10.782;2023-08-31T03:26:34;4.72;;;3.30;;
56299;SDS011;42209;6.376;-10.782;2023-08-31T03:29:02;5.00;;;3.53;;
56299;SDS011;42209;6.376;-10.782;2023-08-31T03:33:59;5.88;;;4.40;;
56299;SDS011;42209;6.376;-10.782;2023-08-31T03:36:27;5.18;;;4.22;;
56299;SDS011;42209;6.376;-10.782;2023-08-31T03:38:56;5.05;;;3.83;;
56299;SDS011;42209;6.376;-10.782;2023-08-31T03:41:24;5.25;;;4.47;;
56299;SDS011;42209;6.376;-10.782;2023-08-31T03:43:52;5.25;;;3.80;;
56299;SDS011;42209;6.376;-10.782;2023-08-31T03:46:22;6.15;;;4.10;;
56299;SDS011;42209;6.376;-10.782;2023-08-31T03:51:18;5.13;;;3.72;;
56299;SDS011;42209;6.376;-10.782;2023-08-31T03:53:47;5.45;;;4.50;;
56299;SDS011;42209;6.376;-10.782;2023-08-31T03:56:16;6.95;;;4.68;;
56299;SDS011;42209;6.376;-10.782;2023-08-31T04:01:13;8.10;;;5.32;;
56299;SDS011;42209;6.376;-10.782;2023-08-31T04:06:10;6.63;;;4.28;;
56299;SDS011;42209;6.376;-10.782;2023-08-31T04:08:40;5.20;;;4.70;;
56299;SDS011;42209;6.376;-10.782;2023-08-31T04:11:08;6.22;;;4.50;;
56299;SDS011;42209;6.376;-10.782;2023-08-31T04:13:37;6.18;;;4.88;;
56299;SDS011;42209;6.376;-10.782;2023-08-31T04:16:05;7.32;;;4.97;;
56299;SDS011;42209;6.376;-10.782;2023-08-31T04:18:33;5.50;;;4.60;;
56299;SDS011;42209;6.376;-10.782;2023-08-31T04:21:02;5.65;;;4.20;;
56299;SDS011;42209;6.376;-10.782;2023-08-31T04:23:30;4.65;;;4.18;;
56299;SDS011;42209;6.376;-10.782;2023-08-31T04:25:59;7.25;;;4.55;;
56299;SDS011;42209;6.376;-10.782;2023-08-31T04:28:27;4.97;;;4.32;;
56299;SDS011;42209;6.376;-10.782;2023-08-31T04:30:55;5.43;;;4.03;;
56299;SDS011;42209;6.376;-10.782;2023-08-31T04:33:24;6.97;;;5.03;;
56299;SDS011;42209;6.376;-10.782;2023-08-31T04:35:52;5.97;;;4.65;;
56299;SDS011;42209;6.376;-10.782;2023-08-31T04:38:20;4.80;;;3.92;;
56299;SDS011;42209;6.376;-10.782;2023-08-31T04:40:49;5.13;;;4.18;;
56299;SDS011;42209;6.376;-10.782;2023-08-31T04:43:17;4.95;;;4.10;;
56299;SDS011;42209;6.376;-10.782;2023-08-31T04:45:45;5.80;;;4.30;;
56299;SDS011;42209;6.376;-10.782;2023-08-31T04:48:13;5.43;;;4.57;;
56299;SDS011;42209;6.376;-10.782;2023-08-31T04:50:42;5.07;;;4.22;;
56299;SDS011;42209;6.376;-10.782;2023-08-31T04:53:14;7.13;;;4.65;;
56299;SDS011;42209;6.376;-10.782;2023-08-31T04:55:43;4.78;;;4.22;;
56299;SDS011;42209;6.376;-10.782;2023-08-31T04:58:11;5.53;;;4.10;;
56299;SDS011;42209;6.376;-10.782;2023-08-31T05:00:40;6.00;;;4.60;;
56299;SDS011;42209;6.376;-10.782;2023-08-31T05:03:08;5.28;;;3.85;;
56299;SDS011;42209;6.376;-10.782;2023-08-31T05:05:37;4.78;;;4.32;;
56299;SDS011;42209;6.376;-10.782;2023-08-31T05:10:35;7.50;;;5.03;;
56299;SDS011;42209;6.376;-10.782;2023-08-31T05:13:03;6.07;;;4.28;;
56299;SDS011;42209;6.376;-10.782;2023-08-31T05:15:32;6.15;;;4.82;;
56299;SDS011;42209;6.376;-10.782;2023-08-31T05:18:00;5.35;;;4.38;;
56299;SDS011;42209;6.376;-10.782;2023-08-31T05:20:28;5.88;;;4.25;;
56299;SDS011;42209;6.376;-10.782;2023-08-31T05:22:57;4.57;;;3.63;;
56299;SDS011;42209;6.376;-10.782;2023-08-31T05:25:25;5.38;;;4.22;;
56299;SDS011;42209;6.376;-10.782;2023-08-31T05:27:54;6.13;;;4.65;;
56299;SDS011;42209;6.376;-10.782;2023-08-31T05:30:23;5.55;;;4.32;;
56299;SDS011;42209;6.376;-10.782;2023-08-31T05:35:19;6.80;;;4.60;;
56299;SDS011;42209;6.376;-10.782;2023-08-31T05:37:48;7.30;;;4.72;;
56299;SDS011;42209;6.376;-10.782;2023-08-31T05:40:16;5.72;;;4.13;;
56299;SDS011;42209;6.376;-10.782;2023-08-31T05:42:45;5.80;;;4.40;;
56299;SDS011;42209;6.376;-10.782;2023-08-31T05:45:13;6.78;;;4.68;;
56299;SDS011;42209;6.376;-10.782;2023-08-31T05:47:42;7.65;;;5.05;;
56299;SDS011;42209;6.376;-10.782;2023-08-31T05:50:10;4.50;;;4.03;;
56299;SDS011;42209;6.376;-10.782;2023-08-31T05:52:38;5.82;;;4.47;;
56299;SDS011;42209;6.376;-10.782;2023-08-31T05:55:07;7.30;;;5.28;;
56299;SDS011;42209;6.376;-10.782;2023-08-31T05:57:36;6.50;;;4.85;;
56299;SDS011;42209;6.376;-10.782;2023-08-31T06:00:05;5.30;;;4.22;;
56299;SDS011;42209;6.376;-10.782;2023-08-31T06:02:38;7.95;;;5.35;;
56299;SDS011;42209;6.376;-10.782;2023-08-31T06:07:35;7.85;;;4.30;;
56299;SDS011;42209;6.376;-10.782;2023-08-31T06:10:03;6.55;;;5.05;;
56299;SDS011;42209;6.376;-10.782;2023-08-31T06:12:32;5.72;;;4.20;;
56299;SDS011;42209;6.376;-10.782;2023-08-31T06:15:00;7.03;;;4.45;;
56299;SDS011;42209;6.376;-10.782;2023-08-31T06:17:29;4.80;;;3.88;;
56299;SDS011;42209;6.376;-10.782;2023-08-31T06:22:25;7.50;;;5.55;;
56299;SDS011;42209;6.376;-10.782;2023-08-31T06:24:54;5.32;;;3.80;;
56299;SDS011;42209;6.376;-10.782;2023-08-31T06:27:22;5.32;;;4.43;;
56299;SDS011;42209;6.376;-10.782;2023-08-31T06:29:51;8.38;;;4.60;;
56299;SDS011;42209;6.376;-10.782;2023-08-31T06:34:47;6.97;;;4.88;;
56299;SDS011;42209;6.376;-10.782;2023-08-31T06:37:16;15.13;;;4.47;;
56299;SDS011;42209;6.376;-10.782;2023-08-31T06:39:44;6.78;;;4.55;;
56299;SDS011;42209;6.376;-10.782;2023-08-31T06:42:12;6.05;;;4.55;;
56299;SDS011;42209;6.376;-10.782;2023-08-31T06:44:43;6.88;;;5.05;;
56299;SDS011;42209;6.376;-10.782;2023-08-31T06:47:11;8.35;;;4.50;;
56299;SDS011;42209;6.376;-10.782;2023-08-31T06:49:40;6.55;;;4.35;;
56299;SDS011;42209;6.376;-10.782;2023-08-31T06:52:08;7.15;;;5.10;;
56299;SDS011;42209;6.376;-10.782;2023-08-31T06:54:56;6.20;;;4.95;;
56299;SDS011;42209;6.376;-10.782;2023-08-31T06:57:25;6.85;;;4.63;;
56299;SDS011;42209;6.376;-10.782;2023-08-31T06:59:55;7.18;;;4.82;;
56299;SDS011;42209;6.376;-10.782;2023-08-31T07:02:25;5.53;;;4.68;;
56299;SDS011;42209;6.376;-10.782;2023-08-31T07:04:54;5.72;;;4.32;;
56299;SDS011;42209;6.376;-10.782;2023-08-31T07:07:22;5.40;;;4.68;;
56299;SDS011;42209;6.376;-10.782;2023-08-31T07:09:51;5.00;;;4.55;;
56299;SDS011;42209;6.376;-10.782;2023-08-31T07:12:19;5.70;;;4.55;;
56299;SDS011;42209;6.376;-10.782;2023-08-31T07:14:47;5.28;;;4.20;;
56299;SDS011;42209;6.376;-10.782;2023-08-31T07:17:19;6.55;;;4.90;;
56299;SDS011;42209;6.376;-10.782;2023-08-31T07:19:48;6.75;;;4.53;;
56299;SDS011;42209;6.376;-10.782;2023-08-31T07:22:16;5.45;;;4.18;;
56299;SDS011;42209;6.376;-10.782;2023-08-31T07:24:45;5.75;;;4.22;;
56299;SDS011;42209;6.376;-10.782;2023-08-31T07:27:13;6.72;;;4.50;;
56299;SDS011;42209;6.376;-10.782;2023-08-31T07:29:42;6.13;;;4.35;;
56299;SDS011;42209;6.376;-10.782;2023-08-31T07:32:10;5.50;;;4.47;;
56299;SDS011;42209;6.376;-10.782;2023-08-31T07:34:38;11.02;;;6.00;;
56299;SDS011;42209;6.376;-10.782;2023-08-31T07:37:07;8.98;;;5.45;;
56299;SDS011;42209;6.376;-10.782;2023-08-31T07:39:35;6.68;;;4.85;;
56299;SDS011;42209;6.376;-10.782;2023-08-31T07:42:04;7.45;;;5.22;;
56299;SDS011;42209;6.376;-10.782;2023-08-31T07:44:33;11.77;;;7.03;;
56299;SDS011;42209;6.376;-10.782;2023-08-31T07:47:01;15.57;;;7.43;;
56299;SDS011;42209;6.376;-10.782;2023-08-31T07:49:30;19.25;;;9.45;;
56299;SDS011;42209;6.376;-10.782;2023-08-31T07:51:58;17.15;;;8.23;;
56299;SDS011;42209;6.376;-10.782;2023-08-31T07:54:26;19.20;;;8.68;;
56299;SDS011;42209;6.376;-10.782;2023-08-31T07:56:55;20.70;;;9.55;;
56299;SDS011;42209;6.376;-10.782;2023-08-31T07:59:23;17.63;;;9.77;;
56299;SDS011;42209;6.376;-10.782;2023-08-31T08:01:52;16.95;;;9.57;;
56299;SDS011;42209;6.376;-10.782;2023-08-31T08:04:20;18.05;;;9.57;;
56299;SDS011;42209;6.376;-10.782;2023-08-31T08:06:49;19.50;;;10.45;;
56299;SDS011;42209;6.376;-10.782;2023-08-31T08:09:17;17.77;;;9.68;;
56299;SDS011;42209;6.376;-10.782;2023-08-31T08:11:46;17.30;;;10.73;;
56299;SDS011;42209;6.376;-10.782;2023-08-31T08:14:14;19.30;;;9.90;;
56299;SDS011;42209;6.376;-10.782;2023-08-31T08:16:43;17.40;;;10.15;;
56299;SDS011;42209;6.376;-10.782;2023-08-31T08:22:50;16.88;;;9.30;;
56299;SDS011;42209;6.376;-10.782;2023-08-31T08:25:20;18.15;;;10.25;;
56299;SDS011;42209;6.376;-10.782;2023-08-31T08:30:18;18.80;;;10.25;;
56299;SDS011;42209;6.376;-10.782;2023-08-31T08:32:46;18.13;;;9.38;;
56299;SDS011;42209;6.376;-10.782;2023-08-31T08:35:14;17.08;;;10.07;;
56299;SDS011;42209;6.376;-10.782;2023-08-31T08:40:11;16.02;;;8.82;;
56299;SDS011;42209;6.376;-10.782;2023-08-31T08:42:41;13.40;;;8.38;;
56299;SDS011;42209;6.376;-10.782;2023-08-31T08:45:14;16.13;;;9.55;;
56299;SDS011;42209;6.376;-10.782;2023-08-31T08:47:44;13.65;;;9.40;;
56299;SDS011;42209;6.376;-10.782;2023-08-31T08:50:14;17.00;;;9.05;;
56299;SDS011;42209;6.376;-10.782;2023-08-31T08:52:44;14.88;;;8.65;;
56299;SDS011;42209;6.376;-10.782;2023-08-31T08:55:14;13.45;;;8.48;;
56299;SDS011;42209;6.376;-10.782;2023-08-31T08:57:43;12.98;;;7.95;;
56299;SDS011;42209;6.376;-10.782;2023-08-31T09:02:40;16.10;;;9.15;;
56299;SDS011;42209;6.376;-10.782;2023-08-31T09:05:08;14.10;;;7.13;;
56299;SDS011;42209;6.376;-10.782;2023-08-31T09:07:38;17.23;;;9.00;;
56299;SDS011;42209;6.376;-10.782;2023-08-31T09:13:34;11.00;;;7.10;;
56299;SDS011;42209;6.376;-10.782;2023-08-31T09:16:03;11.48;;;7.75;;
56299;SDS011;42209;6.376;-10.782;2023-08-31T09:18:32;12.13;;;8.52;;
56299;SDS011;42209;6.376;-10.782;2023-08-31T09:21:01;11.25;;;7.47;;
56299;SDS011;42209;6.376;-10.782;2023-08-31T09:25:57;12.73;;;6.72;;
56299;SDS011;42209;6.376;-10.782;2023-08-31T09:28:27;10.88;;;6.30;;
56299;SDS011;42209;6.376;-10.782;2023-08-31T09:31:05;12.00;;;6.90;;
56299;SDS011;42209;6.376;-10.782;2023-08-31T09:33:35;10.43;;;6.97;;
56299;SDS011;42209;6.376;-10.782;2023-08-31T09:36:06;11.20;;;6.25;;
56299;SDS011;42209;6.376;-10.782;2023-08-31T09:38:41;10.05;;;6.15;;
56299;SDS011;42209;6.376;-10.782;2023-08-31T09:41:11;8.80;;;5.68;;
56299;SDS011;42209;6.376;-10.782;2023-08-31T09:43:40;10.57;;;5.38;;
56299;SDS011;42209;6.376;-10.782;2023-08-31T09:46:09;8.85;;;4.90;;
56299;SDS011;42209;6.376;-10.782;2023-08-31T09:48:39;6.95;;;4.50;;
56299;SDS011;42209;6.376;-10.782;2023-08-31T09:51:09;6.45;;;4.28;;
56299;SDS011;42209;6.376;-10.782;2023-08-31T09:53:38;9.48;;;4.40;;
56299;SDS011;42209;6.376;-10.782;2023-08-31T09:56:08;7.40;;;4.70;;
56299;SDS011;42209;6.376;-10.782;2023-08-31T09:58:45;5.70;;;4.05;;
56299;SDS011;42209;6.376;-10.782;2023-08-31T10:01:16;6.18;;;3.88;;
56299;SDS011;42209;6.376;-10.782;2023-08-31T10:03:55;7.32;;;3.17;;
56299;SDS011;42209;6.376;-10.782;2023-08-31T10:06:27;8.48;;;4.63;;
56299;SDS011;42209;6.376;-10.782;2023-08-31T10:08:55;9.23;;;3.92;;
56299;SDS011;42209;6.376;-10.782;2023-08-31T10:11:27;10.27;;;4.65;;
56299;SDS011;42209;6.376;-10.782;2023-08-31T10:13:56;6.68;;;4.28;;
56299;SDS011;42209;6.376;-10.782;2023-08-31T10:16:26;7.22;;;4.43;;
56299;SDS011;42209;6.376;-10.782;2023-08-31T10:18:55;6.82;;;4.63;;
56299;SDS011;42209;6.376;-10.782;2023-08-31T10:21:24;8.18;;;4.70;;
56299;SDS011;42209;6.376;-10.782;2023-08-31T10:26:25;6.63;;;4.20;;
56299;SDS011;42209;6.376;-10.782;2023-08-31T10:28:57;7.28;;;4.20;;
56299;SDS011;42209;6.376;-10.782;2023-08-31T10:31:29;7.15;;;4.57;;
56299;SDS011;42209;6.376;-10.782;2023-08-31T10:34:04;6.25;;;4.32;;
56299;SDS011;42209;6.376;-10.782;2023-08-31T10:36:38;7.93;;;3.97;;
56299;SDS011;42209;6.376;-10.782;2023-08-31T10:39:14;6.50;;;4.50;;
56299;SDS011;42209;6.376;-10.782;2023-08-31T10:41:53;7.95;;;4.63;;
56299;SDS011;42209;6.376;-10.782;2023-08-31T10:44:23;6.97;;;4.18;;
56299;SDS011;42209;6.376;-10.782;2023-08-31T10:46:53;9.18;;;4.05;;
56299;SDS011;42209;6.376;-10.782;2023-08-31T10:51:54;7.47;;;3.83;;
56299;SDS011;42209;6.376;-10.782;2023-08-31T10:54:30;5.75;;;3.60;;
56299;SDS011;42209;6.376;-10.782;2023-08-31T11:00:13;5.05;;;4.00;;
56299;SDS011;42209;6.376;-10.782;2023-08-31T11:02:36;5.57;;;3.92;;
56299;SDS011;42209;6.376;-10.782;2023-08-31T11:07:49;5.03;;;3.50;;
56299;SDS011;42209;6.376;-10.782;2023-08-31T11:10:19;5.30;;;3.67;;
56299;SDS011;42209;6.376;-10.782;2023-08-31T11:12:49;6.88;;;4.00;;
56299;SDS011;42209;6.376;-10.782;2023-08-31T11:15:20;6.43;;;3.88;;
56299;SDS011;42209;6.376;-10.782;2023-08-31T11:17:50;9.98;;;3.55;;
56299;SDS011;42209;6.376;-10.782;2023-08-31T11:20:22;5.63;;;3.78;;
56299;SDS011;42209;6.376;-10.782;2023-08-31T11:22:52;6.22;;;4.00;;
56299;SDS011;42209;6.376;-10.782;2023-08-31T11:25:21;3.95;;;3.17;;
56299;SDS011;42209;6.376;-10.782;2023-08-31T11:30:36;5.53;;;3.30;;
56299;SDS011;42209;6.376;-10.782;2023-08-31T11:33:05;5.82;;;4.10;;
56299;SDS011;42209;6.376;-10.782;2023-08-31T11:35:35;3.88;;;2.80;;
56299;SDS011;42209;6.376;-10.782;2023-08-31T11:38:05;5.13;;;3.38;;
56299;SDS011;42209;6.376;-10.782;2023-08-31T11:40:34;5.22;;;3.10;;
56299;SDS011;42209;6.376;-10.782;2023-08-31T11:43:06;6.03;;;3.85;;
56299;SDS011;42209;6.376;-10.782;2023-08-31T11:45:36;6.53;;;3.85;;
56299;SDS011;42209;6.376;-10.782;2023-08-31T11:48:06;4.95;;;3.78;;
56299;SDS011;42209;6.376;-10.782;2023-08-31T11:50:36;9.63;;;5.15;;
56299;SDS011;42209;6.376;-10.782;2023-08-31T11:53:05;8.65;;;4.88;;
56299;SDS011;42209;6.376;-10.782;2023-08-31T11:55:33;7.05;;;4.78;;
56299;SDS011;42209;6.376;-10.782;2023-08-31T11:58:02;8.75;;;6.28;;
56299;SDS011;42209;6.376;-10.782;2023-08-31T12:00:30;12.68;;;6.18;;
56299;SDS011;42209;6.376;-10.782;2023-08-31T12:03:00;9.95;;;5.45;;
56299;SDS011;42209;6.376;-10.782;2023-08-31T12:05:30;7.75;;;6.13;;
56299;SDS011;42209;6.376;-10.782;2023-08-31T12:08:13;10.10;;;6.18;;
56299;SDS011;42209;6.376;-10.782;2023-08-31T12:10:42;8.13;;;6.03;;
56299;SDS011;42209;6.376;-10.782;2023-08-31T12:13:11;8.82;;;5.78;;
56299;SDS011;42209;6.376;-10.782;2023-08-31T12:15:40;7.57;;;5.07;;
56299;SDS011;42209;6.376;-10.782;2023-08-31T12:23:12;7.38;;;4.97;;
56299;SDS011;42209;6.376;-10.782;2023-08-31T12:25:51;6.90;;;4.68;;
56299;SDS011;42209;6.376;-10.782;2023-08-31T12:28:22;8.35;;;5.07;;
56299;SDS011;42209;6.376;-10.782;2023-08-31T12:30:54;6.20;;;4.78;;
56299;SDS011;42209;6.376;-10.782;2023-08-31T12:33:23;7.68;;;4.78;;
56299;SDS011;42209;6.376;-10.782;2023-08-31T12:35:51;6.00;;;4.22;;
56299;SDS011;42209;6.376;-10.782;2023-08-31T12:38:20;7.78;;;4.97;;
56299;SDS011;42209;6.376;-10.782;2023-08-31T12:40:48;5.75;;;3.15;;
56299;SDS011;42209;6.376;-10.782;2023-08-31T12:43:17;7.32;;;4.70;;
56299;SDS011;42209;6.376;-10.782;2023-08-31T12:45:46;5.63;;;3.63;;
56299;SDS011;42209;6.376;-10.782;2023-08-31T12:48:14;6.15;;;3.58;;
56299;SDS011;42209;6.376;-10.782;2023-08-31T12:50:43;7.38;;;3.67;;
56299;SDS011;42209;6.376;-10.782;2023-08-31T12:53:11;6.10;;;3.58;;
56299;SDS011;42209;6.376;-10.782;2023-08-31T12:55:40;5.95;;;3.88;;
56299;SDS011;42209;6.376;-10.782;2023-08-31T12:58:08;4.90;;;3.33;;
56299;SDS011;42209;6.376;-10.782;2023-08-31T13:00:36;7.45;;;3.45;;
56299;SDS011;42209;6.376;-10.782;2023-08-31T13:08:07;5.93;;;3.40;;
56299;SDS011;42209;6.376;-10.782;2023-08-31T13:10:36;5.43;;;3.50;;
56299;SDS011;42209;6.376;-10.782;2023-08-31T13:13:04;7.25;;;3.95;;
56299;SDS011;42209;6.376;-10.782;2023-08-31T13:15:32;4.03;;;3.38;;
56299;SDS011;42209;6.376;-10.782;2023-08-31T13:18:01;5.32;;;3.35;;
56299;SDS011;42209;6.376;-10.782;2023-08-31T13:20:31;5.15;;;3.10;;
56299;SDS011;42209;6.376;-10.782;2023-08-31T13:22:59;6.70;;;3.65;;
56299;SDS011;42209;6.376;-10.782;2023-08-31T13:27:56;5.40;;;3.30;;
56299;SDS011;42209;6.376;-10.782;2023-08-31T13:32:53;4.82;;;3.30;;
56299;SDS011;42209;6.376;-10.782;2023-08-31T13:35:21;5.60;;;2.53;;
56299;SDS011;42209;6.376;-10.782;2023-08-31T13:37:50;4.40;;;2.83;;
56299;SDS011;42209;6.376;-10.782;2023-08-31T13:40:18;5.43;;;2.88;;
56299;SDS011;42209;6.376;-10.782;2023-08-31T13:42:54;4.60;;;3.33;;
56299;SDS011;42209;6.376;-10.782;2023-08-31T13:45:23;4.53;;;2.92;;
56299;SDS011;42209;6.376;-10.782;2023-08-31T13:47:51;4.47;;;2.15;;
56299;SDS011;42209;6.376;-10.782;2023-08-31T13:50:20;5.07;;;2.72;;
56299;SDS011;42209;6.376;-10.782;2023-08-31T13:52:48;5.75;;;2.60;;
56299;SDS011;42209;6.376;-10.782;2023-08-31T13:55:17;4.38;;;2.72;;
56299;SDS011;42209;6.376;-10.782;2023-08-31T13:57:46;5.25;;;2.38;;
56299;SDS011;42209;6.376;-10.782;2023-08-31T14:00:14;6.75;;;2.65;;
56299;SDS011;42209;6.376;-10.782;2023-08-31T14:02:43;4.20;;;2.42;;
56299;SDS011;42209;6.376;-10.782;2023-08-31T14:05:12;4.20;;;2.33;;
56299;SDS011;42209;6.376;-10.782;2023-08-31T14:07:40;2.70;;;1.95;;
56299;SDS011;42209;6.376;-10.782;2023-08-31T14:10:11;4.47;;;2.33;;
56299;SDS011;42209;6.376;-10.782;2023-08-31T14:12:39;6.60;;;2.40;;
56299;SDS011;42209;6.376;-10.782;2023-08-31T14:15:07;4.35;;;2.70;;
56299;SDS011;42209;6.376;-10.782;2023-08-31T14:17:36;2.95;;;2.13;;
56299;SDS011;42209;6.376;-10.782;2023-08-31T14:20:05;5.00;;;2.55;;
56299;SDS011;42209;6.376;-10.782;2023-08-31T14:22:34;4.13;;;2.45;;
56299;SDS011;42209;6.376;-10.782;2023-08-31T14:25:02;4.15;;;2.40;;
56299;SDS011;42209;6.376;-10.782;2023-08-31T14:27:31;5.38;;;2.45;;
56299;SDS011;42209;6.376;-10.782;2023-08-31T14:29:59;3.28;;;2.08;;
56299;SDS011;42209;6.376;-10.782;2023-08-31T14:32:28;3.20;;;2.22;;
56299;SDS011;42209;6.376;-10.782;2023-08-31T14:34:56;3.67;;;2.90;;
56299;SDS011;42209;6.376;-10.782;2023-08-31T14:37:25;5.93;;;2.95;;
56299;SDS011;42209;6.376;-10.782;2023-08-31T14:39:53;5.53;;;3.63;;
56299;SDS011;42209;6.376;-10.782;2023-08-31T14:42:21;4.22;;;2.75;;
56299;SDS011;42209;6.376;-10.782;2023-08-31T14:44:50;3.90;;;3.03;;
56299;SDS011;42209;6.376;-10.782;2023-08-31T14:47:18;6.75;;;3.35;;
56299;SDS011;42209;6.376;-10.782;2023-08-31T14:49:47;6.55;;;3.40;;
56299;SDS011;42209;6.376;-10.782;2023-08-31T14:52:15;3.95;;;2.83;;
56299;SDS011;42209;6.376;-10.782;2023-08-31T14:54:43;4.00;;;3.45;;
56299;SDS011;42209;6.376;-10.782;2023-08-31T14:57:12;3.97;;;2.35;;
56299;SDS011;42209;6.376;-10.782;2023-08-31T14:59:40;6.00;;;3.00;;
56299;SDS011;42209;6.376;-10.782;2023-08-31T15:04:37;3.30;;;2.33;;
56299;SDS011;42209;6.376;-10.782;2023-08-31T15:07:05;8.02;;;2.25;;
56299;SDS011;42209;6.376;-10.782;2023-08-31T15:09:34;5.13;;;2.47;;
56299;SDS011;42209;6.376;-10.782;2023-08-31T15:12:02;3.30;;;2.47;;
56299;SDS011;42209;6.376;-10.782;2023-08-31T15:14:31;3.35;;;2.35;;
56299;SDS011;42209;6.376;-10.782;2023-08-31T15:16:59;8.48;;;3.45;;
56299;SDS011;42209;6.376;-10.782;2023-08-31T15:19:28;4.78;;;3.33;;
56299;SDS011;42209;6.376;-10.782;2023-08-31T15:21:56;5.85;;;2.95;;
56299;SDS011;42209;6.376;-10.782;2023-08-31T15:24:24;4.93;;;2.65;;
56299;SDS011;42209;6.376;-10.782;2023-08-31T15:26:53;5.38;;;2.50;;
56299;SDS011;42209;6.376;-10.782;2023-08-31T15:29:22;4.25;;;2.78;;
56299;SDS011;42209;6.376;-10.782;2023-08-31T15:31:50;4.32;;;3.60;;
56299;SDS011;42209;6.376;-10.782;2023-08-31T15:34:18;2.92;;;2.47;;
56299;SDS011;42209;6.376;-10.782;2023-08-31T15:36:47;10.57;;;3.22;;
56299;SDS011;42209;6.376;-10.782;2023-08-31T15:39:15;3.92;;;2.45;;
56299;SDS011;42209;6.376;-10.782;2023-08-31T15:41:44;4.82;;;2.95;;
56299;SDS011;42209;6.376;-10.782;2023-08-31T15:44:12;4.57;;;2.75;;
56299;SDS011;42209;6.376;-10.782;2023-08-31T15:46:40;5.40;;;3.42;;
56299;SDS011;42209;6.376;-10.782;2023-08-31T15:49:09;4.82;;;3.08;;
56299;SDS011;42209;6.376;-10.782;2023-08-31T15:51:37;3.83;;;3.10;;
56299;SDS011;42209;6.376;-10.782;2023-08-31T15:54:06;5.45;;;3.00;;
56299;SDS011;42209;6.376;-10.782;2023-08-31T15:56:34;3.67;;;1.77;;
56299;SDS011;42209;6.376;-10.782;2023-08-31T15:59:02;4.65;;;2.85;;
56299;SDS011;42209;6.376;-10.782;2023-08-31T16:01:31;3.10;;;2.58;;
56299;SDS011;42209;6.376;-10.782;2023-08-31T16:03:59;3.08;;;2.38;;
56299;SDS011;42209;6.376;-10.782;2023-08-31T16:06:28;6.13;;;2.30;;
56299;SDS011;42209;6.376;-10.782;2023-08-31T16:08:56;5.63;;;2.40;;
56299;SDS011;42209;6.376;-10.782;2023-08-31T16:11:25;2.88;;;2.17;;
56299;SDS011;42209;6.376;-10.782;2023-08-31T16:13:53;3.60;;;2.53;;
56299;SDS011;42209;6.376;-10.782;2023-08-31T16:16:22;3.38;;;2.20;;
56299;SDS011;42209;6.376;-10.782;2023-08-31T16:18:51;3.05;;;2.47;;
56299;SDS011;42209;6.376;-10.782;2023-08-31T16:21:20;3.38;;;2.50;;